Time;durP1;ratioP1;P1;durP2;ratioP2;P2;SDS_P1;SDS_P2;PMS_P1;PMS_P2;Temp;Humidity;BMP_temperature;BMP_pressure;BME280_temperature;BME280_humidity;BME280_pressure;Samples;Min_cycle;Max_cycle;Signal;HPM_P1;HPM_P2
2022/09/29 00:00:12;;;;;;;3.10;1.30;;;;;;;9.72;100.00;99985.50;5092157;28;20120;-80
2022/09/29 00:02:38;;;;;;;2.67;1.10;;;;;;;9.81;100.00;100011.09;5075232;28;20032;-79
2022/09/29 00:05:04;;;;;;;4.07;1.52;;;;;;;9.84;100.00;100018.72;5109032;27;20044;-80
2022/09/29 00:07:31;;;;;;;4.70;1.50;;;;;;;9.86;100.00;100000.50;5075439;28;20469;-79
2022/09/29 00:09:56;;;;;;;6.05;1.00;;;;;;;9.82;100.00;99999.28;5091060;28;20034;-80
2022/09/29 00:12:22;;;;;;;2.88;1.52;;;;;;;9.78;100.00;99989.19;5090558;28;20039;-79
2022/09/29 00:14:47;;;;;;;3.42;1.15;;;;;;;9.73;100.00;99973.69;5090185;28;20338;-80
2022/09/29 00:17:14;;;;;;;3.55;1.20;;;;;;;9.80;100.00;100006.75;5074197;28;20032;-80
2022/09/29 00:19:40;;;;;;;3.45;1.20;;;;;;;9.70;100.00;99981.38;5091460;28;20039;-79
2022/09/29 00:22:05;;;;;;;2.60;1.33;;;;;;;9.84;100.00;99997.22;5091808;28;20028;-80
2022/09/29 00:24:30;;;;;;;3.33;1.30;;;;;;;9.65;100.00;99972.09;5068371;28;20107;-79
2022/09/29 00:26:56;;;;;;;2.63;1.20;;;;;;;9.74;100.00;100002.25;5061877;28;20038;-79
2022/09/29 00:29:22;;;;;;;2.90;1.20;;;;;;;9.74;100.00;99996.03;5108312;28;20031;-79
2022/09/29 00:31:47;;;;;;;2.35;1.38;;;;;;;9.72;100.00;100006.97;5073834;28;20517;-79
2022/09/29 00:34:13;;;;;;;2.97;1.30;;;;;;;9.70;100.00;99995.66;5074626;28;20127;-79
2022/09/29 00:36:40;;;;;;;3.28;1.30;;;;;;;9.75;100.00;99984.25;5091564;28;20364;-79
2022/09/29 00:39:06;;;;;;;1.83;1.30;;;;;;;9.73;100.00;99989.00;5074571;28;20077;-79
2022/09/29 00:41:34;;;;;;;2.25;1.20;;;;;;;9.66;100.00;99989.03;5091028;28;20036;-80
2022/09/29 00:44:23;;;;;;;3.45;1.58;;;;;;;9.68;100.00;99981.59;5092716;28;20043;-79
2022/09/29 00:46:56;;;;;;;1.95;1.20;;;;;;;9.62;100.00;99960.94;5063675;28;20115;-79
2022/09/29 00:49:53;;;;;;;2.60;1.33;;;;;;;9.67;100.00;99985.31;5091677;28;20445;-80
2022/09/29 00:52:27;;;;;;;2.38;1.30;;;;;;;9.64;100.00;99993.81;5091073;28;20028;-80
2022/09/29 00:54:59;;;;;;;2.40;1.37;;;;;;;9.59;100.00;99954.13;5092488;28;20024;-80
2022/09/29 00:57:32;;;;;;;3.10;1.27;;;;;;;9.47;100.00;99958.56;5091889;28;20806;-80
2022/09/29 01:00:08;;;;;;;2.88;1.50;;;;;;;9.66;100.00;99980.97;5090882;28;20063;-80
2022/09/29 01:02:37;;;;;;;2.88;1.40;;;;;;;9.65;100.00;99996.28;5063930;28;20506;-80
2022/09/29 01:05:07;;;;;;;2.50;1.85;;;;;;;9.66;100.00;99986.34;5078440;28;20525;-80
2022/09/29 01:07:33;;;;;;;3.08;1.63;;;;;;;9.68;100.00;99989.66;5094842;28;20555;-80
2022/09/29 01:09:58;;;;;;;3.17;1.80;;;;;;;9.63;100.00;99978.72;5094396;28;20036;-79
2022/09/29 01:12:24;;;;;;;2.85;1.50;;;;;;;9.71;100.00;99983.84;5077272;28;20055;-80
2022/09/29 01:14:52;;;;;;;2.72;1.70;;;;;;;9.59;100.00;99986.38;5077768;28;20032;-80
2022/09/29 01:17:18;;;;;;;2.97;1.80;;;;;;;9.53;100.00;99970.28;5077780;28;20024;-80
2022/09/29 01:20:06;;;;;;;2.20;1.30;;;;;;;9.27;100.00;99938.97;5094076;28;20036;-80
2022/09/29 01:23:09;;;;;;;3.63;1.67;;;;;;;9.58;100.00;99997.34;5053837;28;20025;-80
2022/09/29 01:26:08;;;;;;;2.40;1.60;;;;;;;9.59;100.00;100007.03;5080032;28;20028;-80
2022/09/29 01:28:39;;;;;;;3.03;1.52;;;;;;;9.58;100.00;100000.84;5061638;28;20076;-79
2022/09/29 01:31:26;;;;;;;3.30;1.45;;;;;;;9.51;100.00;100012.66;5095074;28;20080;-80
2022/09/29 01:34:30;;;;;;;2.05;1.48;;;;;;;9.44;100.00;99993.03;5097637;28;20036;-80
2022/09/29 01:37:05;;;;;;;5.45;1.55;;;;;;;9.49;100.00;100004.78;5068888;28;20040;-80
2022/09/29 01:39:30;;;;;;;3.13;1.48;;;;;;;9.52;100.00;99993.63;5094619;28;20425;-80
2022/09/29 01:42:08;;;;;;;2.28;1.60;;;;;;;9.57;100.00;100004.56;5094578;28;20032;-80
2022/09/29 01:44:54;;;;;;;3.08;1.52;;;;;;;9.56;100.00;99992.16;5054953;28;20127;-80
2022/09/29 01:47:30;;;;;;;2.50;1.70;;;;;;;9.57;100.00;99995.66;5074480;28;20032;-80
2022/09/29 01:50:01;;;;;;;2.90;1.50;;;;;;;9.62;100.00;99995.88;5094657;28;20122;-80
2022/09/29 01:52:32;;;;;;;1.65;1.45;;;;;;;9.56;100.00;100000.22;5095607;28;20028;-80
2022/09/29 01:55:18;;;;;;;4.07;1.55;;;;;;;9.54;100.00;99994.25;5095817;28;20368;-80
2022/09/29 01:57:58;;;;;;;2.42;1.50;;;;;;;9.56;100.00;100002.09;5095187;28;20426;-80
2022/09/29 02:00:30;;;;;;;3.50;1.75;;;;;;;9.40;100.00;99988.13;5094523;28;20065;-81
2022/09/29 02:03:21;;;;;;;3.42;1.65;;;;;;;9.43;100.00;100004.81;5078753;28;20402;-80
2022/09/29 02:05:52;;;;;;;2.70;1.88;;;;;;;9.31;100.00;99967.06;5095989;28;20043;-80
2022/09/29 02:08:34;;;;;;;2.17;1.80;;;;;;;9.53;100.00;99997.13;5095737;28;20028;-80
2022/09/29 02:11:09;;;;;;;4.10;1.80;;;;;;;9.38;100.00;99973.25;5096672;28;20028;-80
2022/09/29 02:13:44;;;;;;;3.42;1.50;;;;;;;9.52;100.00;100011.63;5094925;28;20359;-81
2022/09/29 02:16:16;;;;;;;2.53;1.73;;;;;;;9.58;100.00;99997.34;5090670;28;20032;-80
2022/09/29 02:18:54;;;;;;;4.93;1.77;;;;;;;9.51;100.00;99991.19;5095873;28;20028;-80
2022/09/29 02:21:27;;;;;;;1.95;1.42;;;;;;;9.40;100.00;99972.00;5096205;28;20107;-80
2022/09/29 02:23:54;;;;;;;4.38;1.77;;;;;;;9.55;100.00;100009.31;5094650;28;20032;-81
2022/09/29 02:26:20;;;;;;;1.65;1.55;;;;;;;9.39;100.00;99974.88;5078252;28;20122;-80
2022/09/29 02:28:46;;;;;;;3.25;1.60;;;;;;;9.62;100.00;100023.56;5095661;28;20028;-80
2022/09/29 02:31:12;;;;;;;2.40;1.67;;;;;;;9.72;100.00;100004.31;5094799;28;20080;-80
2022/09/29 02:33:39;;;;;;;3.13;1.63;;;;;;;9.73;100.00;100005.94;5094838;28;20028;-80
2022/09/29 02:36:32;;;;;;;2.75;1.58;;;;;;;9.59;100.00;99989.06;5094652;28;20032;-80
2022/09/29 02:39:31;;;;;;;2.72;1.63;;;;;;;9.77;100.00;100007.19;5055313;28;20060;-80
2022/09/29 02:42:17;;;;;;;3.38;1.67;;;;;;;9.75;100.00;99990.44;5085890;28;20111;-80
2022/09/29 02:45:19;;;;;;;1.83;1.40;;;;;;;9.80;100.00;99990.63;5063623;28;20402;-80
2022/09/29 02:47:51;;;;;;;3.47;2.10;;;;;;;9.70;100.00;99994.78;5093937;28;20028;-81
2022/09/29 02:50:28;;;;;;;3.83;1.95;;;;;;;9.66;100.00;99991.72;5095311;28;20055;-81
2022/09/29 02:53:03;;;;;;;3.55;1.90;;;;;;;9.62;100.00;99980.56;5093530;28;20546;-80
2022/09/29 02:56:02;;;;;;;3.35;1.88;;;;;;;9.64;100.00;99975.00;5095820;28;20591;-80
2022/09/29 02:58:56;;;;;;;3.25;2.00;;;;;;;9.58;100.00;99957.06;5096556;28;20024;-79
2022/09/29 03:01:22;;;;;;;3.92;1.80;;;;;;;9.67;100.00;99997.91;5088347;28;20051;-80
2022/09/29 03:03:48;;;;;;;2.85;1.70;;;;;;;9.62;100.00;99969.84;5102917;28;20548;-80
2022/09/29 03:06:16;;;;;;;2.40;1.75;;;;;;;9.44;100.00;99960.81;5098774;28;20052;-80
2022/09/29 03:08:41;;;;;;;2.25;1.65;;;;;;;9.27;100.00;99922.88;5093416;28;20410;-80
2022/09/29 03:11:08;;;;;;;2.65;1.60;;;;;;;9.59;100.00;99972.94;5060864;28;20044;-80
2022/09/29 03:13:33;;;;;;;2.60;1.95;;;;;;;9.65;100.00;100001.63;5093788;28;20120;-80
2022/09/29 03:15:59;;;;;;;4.57;1.90;;;;;;;9.65;100.00;99984.69;5112173;28;20055;-80
2022/09/29 03:18:24;;;;;;;3.67;1.92;;;;;;;9.20;100.00;99917.53;5079558;28;20085;-80
2022/09/29 03:20:52;;;;;;;1.85;1.75;;;;;;;9.55;100.00;99987.03;5097639;28;20032;-80
2022/09/29 03:23:17;;;;;;;2.40;1.80;;;;;;;9.57;100.00;99987.63;5100791;28;20030;-80
2022/09/29 03:25:43;;;;;;;4.07;1.75;;;;;;;9.35;100.00;99969.13;5088671;28;20048;-80
2022/09/29 03:28:08;;;;;;;2.92;1.85;;;;;;;9.53;100.00;99992.59;5090744;28;20107;-80
2022/09/29 03:30:34;;;;;;;3.17;1.65;;;;;;;9.58;100.00;100000.03;5093264;28;20077;-80
2022/09/29 03:33:00;;;;;;;1.92;1.73;;;;;;;9.61;100.00;100005.78;5093069;28;20066;-79
2022/09/29 03:35:26;;;;;;;2.20;1.70;;;;;;;9.56;100.00;100004.78;5092370;28;20112;-80
2022/09/29 03:37:56;;;;;;;3.58;2.17;;;;;;;9.37;100.00;99988.53;5085269;28;20053;-80
2022/09/29 03:40:23;;;;;;;8.82;1.90;;;;;;;9.40;100.00;99985.44;5073597;28;20043;-79
2022/09/29 03:42:49;;;;;;;4.38;1.77;;;;;;;9.54;100.00;100004.19;5074608;28;20035;-80
2022/09/29 03:45:15;;;;;;;3.45;1.58;;;;;;;9.21;100.00;99950.59;5092986;28;20051;-79
2022/09/29 03:47:40;;;;;;;2.78;1.95;;;;;;;9.52;100.00;100006.25;5075148;28;20486;-80
2022/09/29 03:50:06;;;;;;;2.22;2.00;;;;;;;9.48;100.00;100002.34;5092345;28;20418;-80
2022/09/29 03:52:33;;;;;;;3.92;1.95;;;;;;;9.51;100.00;100002.75;5059075;28;20028;-80
2022/09/29 03:54:59;;;;;;;3.50;2.10;;;;;;;9.54;100.00;100009.56;5075973;28;20040;-80
2022/09/29 03:57:24;;;;;;;3.13;1.75;;;;;;;9.58;100.00;100016.13;5074304;28;20383;-80
2022/09/29 03:59:52;;;;;;;1.92;1.63;;;;;;;9.56;100.00;100005.59;5091397;28;20059;-79
2022/09/29 04:02:18;;;;;;;3.35;1.77;;;;;;;9.56;100.00;100020.88;5088534;28;20206;-80
2022/09/29 04:04:44;;;;;;;2.50;1.70;;;;;;;9.55;100.00;100021.94;5091529;28;20035;-80
2022/09/29 04:07:10;;;;;;;2.65;1.70;;;;;;;9.61;100.00;100021.09;5093350;28;20412;-80
2022/09/29 04:09:37;;;;;;;2.33;2.00;;;;;;;9.65;100.00;100022.31;5090783;28;20032;-79
2022/09/29 04:12:02;;;;;;;4.65;1.70;;;;;;;9.63;100.00;100025.22;5091230;28;20027;-80
2022/09/29 04:14:28;;;;;;;3.40;1.65;;;;;;;9.47;100.00;99987.25;5107987;28;20541;-80
2022/09/29 04:16:53;;;;;;;2.95;1.70;;;;;;;9.66;100.00;100026.63;5091746;28;20036;-79
2022/09/29 04:19:19;;;;;;;3.45;2.00;;;;;;;9.70;100.00;100014.44;5074749;28;20089;-80
2022/09/29 04:21:45;;;;;;;2.45;2.08;;;;;;;9.64;100.00;100017.97;5074749;28;20036;-80
2022/09/29 04:24:11;;;;;;;5.55;2.00;;;;;;;9.67;100.00;100014.88;5091619;28;20039;-80
2022/09/29 04:26:36;;;;;;;3.05;1.80;;;;;;;9.55;100.00;100001.28;5091500;28;20057;-80
2022/09/29 04:29:02;;;;;;;3.55;1.80;;;;;;;9.59;100.00;100010.53;5090657;28;20044;-79
2022/09/29 04:31:28;;;;;;;2.63;2.00;;;;;;;9.67;100.00;100014.88;5090937;28;20024;-80
2022/09/29 04:33:53;;;;;;;2.78;1.92;;;;;;;9.68;100.00;100031.81;5091315;28;20103;-80
2022/09/29 04:36:19;;;;;;;2.67;1.83;;;;;;;9.57;100.00;100023.38;5075831;28;20036;-79
2022/09/29 04:38:44;;;;;;;3.03;2.20;;;;;;;9.63;100.00;100038.66;5078281;28;20051;-79
2022/09/29 04:41:09;;;;;;;4.63;1.83;;;;;;;9.59;100.00;100047.31;5095560;28;20055;-80
2022/09/29 04:43:35;;;;;;;3.25;2.08;;;;;;;9.56;100.00;100045.88;5080449;28;20452;-80
2022/09/29 04:46:02;;;;;;;3.92;2.10;;;;;;;8.97;100.00;99952.06;5089331;28;20176;-79
2022/09/29 04:48:28;;;;;;;4.10;2.00;;;;;;;9.60;100.00;100043.59;5093085;28;20051;-80
2022/09/29 04:50:54;;;;;;;3.35;2.05;;;;;;;9.54;100.00;100053.34;5078414;28;20059;-80
2022/09/29 04:53:20;;;;;;;3.47;1.85;;;;;;;9.54;100.00;100053.34;5088960;28;20112;-80
2022/09/29 04:55:45;;;;;;;4.28;2.22;;;;;;;9.53;100.00;100061.59;5071875;28;20522;-80
2022/09/29 04:58:10;;;;;;;3.10;2.00;;;;;;;9.45;100.00;100062.66;5088990;28;20033;-81
2022/09/29 05:00:36;;;;;;;6.28;2.22;;;;;;;9.33;100.00;100054.41;5094738;28;20034;-80
2022/09/29 05:03:02;;;;;;;2.63;2.00;;;;;;;9.42;100.00;100068.44;5078288;28;20031;-81
2022/09/29 05:05:27;;;;;;;2.55;2.10;;;;;;;9.40;100.00;100068.66;5079492;28;20044;-80
2022/09/29 05:07:53;;;;;;;3.22;2.30;;;;;;;9.05;100.00;100016.25;5097100;28;20042;-80
2022/09/29 05:10:18;;;;;;;3.10;2.20;;;;;;;9.33;100.00;100077.75;5078084;28;20053;-80
2022/09/29 05:12:50;;;;;;;4.28;2.30;;;;;;;9.29;100.00;100060.41;5077861;28;20518;-80
2022/09/29 05:15:17;;;;;;;2.97;2.10;;;;;;;8.97;100.00;100022.66;5094514;28;20028;-80
2022/09/29 05:17:43;;;;;;;4.50;2.33;;;;;;;9.20;100.00;100058.97;5095997;28;20028;-80
2022/09/29 05:20:09;;;;;;;4.38;2.10;;;;;;;9.22;100.00;100071.16;5077755;28;20406;-80
2022/09/29 05:22:34;;;;;;;5.18;2.17;;;;;;;9.17;100.00;100079.00;5095479;28;20027;-80
2022/09/29 05:25:00;;;;;;;3.25;2.47;;;;;;;8.93;100.00;100029.47;5094097;28;20020;-80
2022/09/29 05:27:25;;;;;;;4.32;2.40;;;;;;;9.22;100.00;100084.56;5094494;28;20031;-80
2022/09/29 05:29:52;;;;;;;3.40;2.33;;;;;;;9.28;100.00;100094.50;5093898;28;20383;-80
2022/09/29 05:32:17;;;;;;;2.90;2.40;;;;;;;9.27;100.00;100098.22;5072014;28;20029;-80
2022/09/29 05:34:43;;;;;;;3.00;2.40;;;;;;;9.28;100.00;100101.72;5077358;28;20057;-80
2022/09/29 05:37:09;;;;;;;4.03;2.13;;;;;;;8.88;100.00;100032.78;5084142;28;20394;-80
2022/09/29 05:39:36;;;;;;;3.75;2.65;;;;;;;9.28;100.00;100097.19;5083145;28;20123;-80
2022/09/29 05:42:05;;;;;;;4.63;2.72;;;;;;;9.11;100.00;100082.53;5101481;28;20399;-81
2022/09/29 05:44:32;;;;;;;3.78;2.90;;;;;;;9.24;100.00;100095.94;5091928;28;20068;-80
2022/09/29 05:46:58;;;;;;;3.92;2.55;;;;;;;9.24;100.00;100100.47;5078449;28;20032;-79
2022/09/29 05:49:23;;;;;;;5.45;2.45;;;;;;;9.11;100.00;100079.84;5096059;28;20035;-80
2022/09/29 05:51:49;;;;;;;2.92;2.47;;;;;;;9.20;100.00;100110.78;5094879;28;20490;-80
2022/09/29 05:54:15;;;;;;;4.50;2.80;;;;;;;9.27;100.00;100108.09;5087776;28;20110;-80
2022/09/29 05:56:40;;;;;;;6.75;2.47;;;;;;;8.81;100.00;100020.41;5110927;28;20056;-80
2022/09/29 05:59:06;;;;;;;3.67;2.40;;;;;;;9.28;100.00;100090.97;5076810;28;20545;-80
2022/09/29 06:01:32;;;;;;;6.05;2.50;;;;;;;9.38;100.00;100116.38;5059932;28;20085;-80
2022/09/29 06:03:57;;;;;;;4.72;2.85;;;;;;;9.26;100.00;100090.34;5100678;28;20016;-80
2022/09/29 06:06:27;;;;;;;3.05;2.45;;;;;;;9.39;100.00;100112.63;5088581;28;20061;-79
2022/09/29 06:08:53;;;;;;;4.63;2.85;;;;;;;9.41;100.00;100112.44;5095096;28;20028;-80
2022/09/29 06:11:22;;;;;;;2.78;2.30;;;;;;;9.44;100.00;100117.41;5077718;28;20431;-80
2022/09/29 06:13:49;;;;;;;3.33;2.60;;;;;;;9.39;100.00;100115.31;5093172;28;20481;-80
2022/09/29 06:16:17;;;;;;;5.97;2.60;;;;;;;9.47;100.00;100116.13;5093504;28;20036;-80
2022/09/29 06:18:42;;;;;;;3.65;2.67;;;;;;;9.41;100.00;100120.50;5093791;28;20020;-80
2022/09/29 06:21:11;;;;;;;3.05;2.13;;;;;;;9.52;100.00;100127.09;5092989;28;20398;-80
2022/09/29 06:23:37;;;;;;;3.40;2.75;;;;;;;9.55;100.00;100113.25;5094656;28;20032;-80
2022/09/29 06:26:05;;;;;;;4.75;2.30;;;;;;;9.57;100.00;100114.69;5053304;28;20036;-80
2022/09/29 06:28:31;;;;;;;3.42;2.40;;;;;;;9.62;100.00;100114.06;5091115;28;20027;-80
2022/09/29 06:31:03;;;;;;;5.85;2.30;;;;;;;9.61;100.00;100115.09;5127630;27;20028;-80
2022/09/29 06:33:29;;;;;;;2.40;2.20;;;;;;;9.70;100.00;100116.53;5093125;28;20035;-80
2022/09/29 06:38:46;;;;;;;31.42;4.03;;;;;;;9.68;100.00;100107.84;5061974;28;20070;-80
2022/09/29 06:41:13;;;;;;;4.18;2.20;;;;;;;9.56;100.00;100074.59;5093452;28;20046;-80
2022/09/29 06:43:38;;;;;;;3.25;2.10;;;;;;;9.94;100.00;100122.25;5093687;28;20493;-80
2022/09/29 06:46:05;;;;;;;3.38;2.45;;;;;;;10.05;100.00;100137.72;5076432;28;20055;-80
2022/09/29 06:48:36;;;;;;;4.28;2.60;;;;;;;10.08;100.00;100134.59;5076375;28;20105;-80
2022/09/29 06:51:05;;;;;;;2.40;2.20;;;;;;;10.07;100.00;100138.34;5092720;28;20051;-80
2022/09/29 06:53:31;;;;;;;3.60;2.40;;;;;;;10.04;100.00;100117.25;5075856;28;20039;-80
2022/09/29 06:55:56;;;;;;;5.40;2.30;;;;;;;10.16;100.00;100120.09;5093547;28;20032;-79
2022/09/29 06:58:22;;;;;;;3.15;2.30;;;;;;;10.35;100.00;100136.16;5074771;28;20406;-80
2022/09/29 07:00:49;;;;;;;4.32;2.22;;;;;;;10.40;100.00;100126.63;5093847;28;20106;-80
2022/09/29 07:03:15;;;;;;;2.85;2.10;;;;;;;10.50;100.00;100141.28;5084440;28;20029;-80
2022/09/29 07:05:40;;;;;;;5.03;2.13;;;;;;;10.46;100.00;100126.63;5067730;28;20040;-80
2022/09/29 07:08:06;;;;;;;3.95;2.10;;;;;;;10.60;100.00;100134.63;5094038;28;20564;-80
2022/09/29 07:10:31;;;;;;;4.70;2.20;;;;;;;10.55;100.00;100140.63;5092917;28;20028;-80
2022/09/29 07:12:57;;;;;;;4.80;2.20;;;;;;;10.53;100.00;100137.34;5093414;28;20044;-81
2022/09/29 07:15:30;;;;;;;2.53;1.88;;;;;;;10.52;100.00;100141.06;5076293;28;20036;-81
2022/09/29 07:17:59;;;;;;;4.53;2.17;;;;;;;10.75;100.00;100138.66;5094164;27;20044;-80
2022/09/29 07:20:25;;;;;;;5.03;2.20;;;;;;;10.46;100.00;100097.03;5094518;28;20058;-80
2022/09/29 07:22:50;;;;;;;2.85;1.90;;;;;;;10.54;100.00;100141.69;5077796;28;20039;-80
2022/09/29 07:25:16;;;;;;;6.13;2.58;;;;;;;10.54;100.00;100112.09;5077626;28;20077;-81
2022/09/29 07:27:41;;;;;;;4.03;1.63;;;;;;;10.72;100.00;100157.91;5073718;28;20028;-80
2022/09/29 07:30:07;;;;;;;3.45;2.15;;;;;;;10.62;100.00;100157.56;5094795;28;20044;-80
2022/09/29 07:32:33;;;;;;;3.85;2.15;;;;;;;10.82;100.00;100146.69;5094088;28;20039;-80
2022/09/29 07:35:01;;;;;;;3.72;1.90;;;;;;;10.03;100.00;100026.88;5076312;28;20032;-80
2022/09/29 07:37:28;;;;;;;2.55;1.88;;;;;;;10.47;100.00;100090.59;5096033;28;20020;-80
2022/09/29 07:39:54;;;;;;;2.63;1.90;;;;;;;10.81;100.00;100123.50;5094080;28;20028;-80
2022/09/29 07:42:21;;;;;;;3.63;1.70;;;;;;;11.04;100.00;100160.63;5091279;28;20019;-80
2022/09/29 07:44:47;;;;;;;3.38;2.10;;;;;;;11.12;100.00;100167.59;5093046;28;20032;-80
2022/09/29 07:47:13;;;;;;;2.67;1.83;;;;;;;11.08;100.00;100161.81;5075835;28;20035;-80
2022/09/29 07:49:40;;;;;;;2.53;1.77;;;;;;;10.43;100.00;100108.22;5087514;28;20021;-80
2022/09/29 07:52:05;;;;;;;1.92;1.60;;;;;;;11.05;100.00;100165.78;5088000;28;20032;-80
2022/09/29 07:54:31;;;;;;;4.03;1.80;;;;;;;11.03;100.00;100162.50;5073909;28;20036;-80
2022/09/29 07:56:59;;;;;;;2.95;1.70;;;;;;;10.69;100.00;100091.06;5095660;28;20482;-81
2022/09/29 07:59:27;;;;;;;4.00;1.73;;;;;;;11.19;100.00;100171.91;5095347;28;20031;-80
2022/09/29 08:01:53;;;;;;;3.33;1.90;;;;;;;11.32;100.00;100175.53;5111765;28;20031;-80
2022/09/29 08:04:19;;;;;;;3.85;1.77;;;;;;;11.32;100.00;100157.50;5093717;28;20081;-80
2022/09/29 08:06:45;;;;;;;3.78;1.40;;;;;;;11.57;100.00;100176.34;5083904;28;20052;-81
2022/09/29 08:09:11;;;;;;;2.78;1.70;;;;;;;11.57;99.57;100176.34;5093796;28;20035;-80
2022/09/29 08:11:38;;;;;;;4.22;1.48;;;;;;;11.55;98.67;100173.06;5077557;28;20031;-81
2022/09/29 08:14:06;;;;;;;3.33;1.58;;;;;;;11.45;99.03;100189.72;5077062;28;20143;-80
2022/09/29 08:16:33;;;;;;;4.25;1.60;;;;;;;11.20;98.48;100197.78;5092648;28;20115;-80
2022/09/29 08:18:59;;;;;;;3.38;1.70;;;;;;;11.34;98.56;100186.91;5093461;28;20024;-79
2022/09/29 08:21:25;;;;;;;2.42;1.65;;;;;;;11.29;98.29;100185.72;5075019;28;20071;-81
2022/09/29 08:23:51;;;;;;;2.20;1.40;;;;;;;10.90;98.73;100142.91;5092421;28;20043;-81
2022/09/29 08:26:20;;;;;;;1.98;1.48;;;;;;;10.72;98.77;100087.13;5092591;28;20081;-80
2022/09/29 08:28:48;;;;;;;3.78;1.50;;;;;;;10.92;98.04;100157.78;5091602;28;20031;-80
2022/09/29 08:31:20;;;;;;;2.45;1.50;;;;;;;11.13;98.43;100190.81;5091673;28;20158;-80
2022/09/29 08:33:50;;;;;;;3.40;1.60;;;;;;;11.07;97.76;100165.56;5091684;28;20039;-80
2022/09/29 08:36:19;;;;;;;2.05;1.63;;;;;;;11.34;96.58;100203.09;5094119;28;20522;-80
2022/09/29 08:38:46;;;;;;;2.88;1.50;;;;;;;11.36;96.84;100215.28;5092052;28;20114;-80
2022/09/29 08:45:07;;;;;;;2.03;1.50;;;;;;;11.59;94.98;100222.78;5105711;22;20211;-80
2022/09/29 08:48:10;;;;;;;3.75;1.33;;;;;;;11.59;94.32;100217.41;5062890;28;20044;-80
2022/09/29 08:50:51;;;;;;;3.17;1.55;;;;;;;11.50;93.58;100181.00;5031348;28;20040;-79
2022/09/29 08:53:22;;;;;;;2.85;1.60;;;;;;;11.69;94.08;100236.59;5075021;28;20036;-77
2022/09/29 08:56:06;;;;;;;2.42;1.10;;;;;;;11.80;93.19;100234.22;5042813;28;20047;-78
2022/09/29 08:58:32;;;;;;;1.80;1.30;;;;;;;11.57;93.86;100206.00;5042971;28;20024;-78
2022/09/29 09:01:04;;;;;;;2.85;1.20;;;;;;;11.78;93.03;100237.13;5066314;28;20551;-78
2022/09/29 09:03:55;;;;;;;2.22;1.23;;;;;;;11.37;92.22;100200.78;5053827;28;20060;-78
2022/09/29 09:06:39;;;;;;;4.03;1.67;;;;;;;11.53;92.52;100240.66;5070485;28;20120;-78
2022/09/29 09:09:17;;;;;;;2.80;1.50;;;;;;;11.69;93.39;100247.38;5062494;28;20036;-77
2022/09/29 09:12:05;;;;;;;3.28;1.40;;;;;;;11.34;92.25;100198.50;5061412;28;20059;-78
2022/09/29 09:14:44;;;;;;;2.65;1.40;;;;;;;11.64;92.74;100244.50;5042608;28;20102;-78
2022/09/29 09:17:37;;;;;;;2.38;1.30;;;;;;;11.73;92.89;100240.47;5066809;28;20164;-78
2022/09/29 09:20:17;;;;;;;1.65;1.35;;;;;;;11.50;92.78;100218.72;5070123;28;20033;-78
2022/09/29 09:22:56;;;;;;;1.85;1.40;;;;;;;11.86;92.41;100254.94;5046835;28;20067;-77
2022/09/29 09:25:48;;;;;;;2.08;1.27;;;;;;;11.96;91.72;100258.78;5052194;28;20380;-77
2022/09/29 09:28:15;;;;;;;2.05;1.30;;;;;;;12.18;91.82;100261.03;5062543;28;20413;-77
2022/09/29 09:30:48;;;;;;;2.47;1.60;;;;;;;12.37;91.16;100261.88;5075205;28;20028;-78
2022/09/29 09:33:21;;;;;;;2.15;1.35;;;;;;;12.36;90.54;100246.75;5069370;28;20024;-77
2022/09/29 09:35:52;;;;;;;1.77;1.15;;;;;;;12.52;89.75;100243.47;5063719;28;20029;-78
2022/09/29 09:38:24;;;;;;;2.20;1.48;;;;;;;12.39;89.84;100228.25;5061068;28;20086;-77
2022/09/29 09:40:54;;;;;;;3.17;1.27;;;;;;;11.87;89.00;100210.75;5076659;28;20037;-77
2022/09/29 09:43:48;;;;;;;2.90;1.30;;;;;;;11.98;89.94;100272.84;5071910;28;20024;-77
2022/09/29 09:46:25;;;;;;;3.00;1.40;;;;;;;12.03;89.70;100257.88;5067040;28;20105;-78
2022/09/29 09:49:19;;;;;;;4.30;1.50;;;;;;;12.20;90.09;100264.34;5077192;28;20374;-78
2022/09/29 09:51:57;;;;;;;2.05;1.20;;;;;;;12.61;88.88;100268.25;5078625;28;20046;-78
2022/09/29 09:54:30;;;;;;;1.33;1.10;;;;;;;12.40;88.33;100245.25;5060671;28;20053;-78
2022/09/29 09:57:16;;;;;;;2.88;1.38;;;;;;;12.52;86.61;100264.22;5067238;28;20029;-78
2022/09/29 09:59:50;;;;;;;2.08;1.50;;;;;;;12.73;86.81;100277.25;5072951;28;20427;-77
2022/09/29 10:02:19;;;;;;;2.03;1.10;;;;;;;12.54;86.85;100224.34;5083239;28;20031;-77
2022/09/29 10:04:48;;;;;;;3.10;1.20;;;;;;;12.99;86.61;100270.69;5072869;28;20044;-77
2022/09/29 10:07:15;;;;;;;2.38;1.30;;;;;;;12.67;86.13;100259.25;5076112;28;20033;-77
2022/09/29 10:09:40;;;;;;;1.85;1.45;;;;;;;12.91;86.14;100263.75;5060509;28;20478;-77
2022/09/29 10:12:15;;;;;;;2.80;1.27;;;;;;;12.80;85.98;100272.59;5069140;28;20041;-77
2022/09/29 10:14:56;;;;;;;4.35;1.30;;;;;;;12.81;84.81;100246.41;5077993;28;20032;-77
2022/09/29 10:17:26;;;;;;;3.28;1.30;;;;;;;13.19;84.62;100264.19;5072810;28;20063;-76
2022/09/29 10:20:11;;;;;;;4.30;1.27;;;;;;;12.98;81.93;100249.31;5069655;28;20025;-76
2022/09/29 10:22:36;;;;;;;2.83;1.40;;;;;;;12.55;83.62;100189.03;5044131;28;20100;-76
2022/09/29 10:25:15;;;;;;;1.75;1.40;;;;;;;13.19;83.49;100266.91;5055272;28;20048;-76
2022/09/29 10:27:44;;;;;;;1.65;1.23;;;;;;;13.06;82.58;100266.03;5070757;28;20190;-76
2022/09/29 10:30:22;;;;;;;3.50;1.40;;;;;;;13.13;83.43;100276.75;5079239;28;20486;-76
2022/09/29 10:32:49;;;;;;;3.40;1.20;;;;;;;13.06;82.99;100268.72;5060122;28;20036;-76
2022/09/29 10:35:23;;;;;;;1.92;1.30;;;;;;;12.86;83.51;100223.09;5070695;28;20120;-76
2022/09/29 10:38:16;;;;;;;2.25;1.10;;;;;;;12.64;81.57;100193.03;5081572;28;20501;-76
2022/09/29 10:41:04;;;;;;;1.90;1.30;;;;;;;12.90;82.01;100228.84;5075425;28;20037;-77
2022/09/29 10:43:41;;;;;;;5.00;1.00;;;;;;;13.13;81.48;100272.16;5062453;28;20486;-76
2022/09/29 10:46:37;;;;;;;2.55;0.98;;;;;;;13.00;79.92;100272.34;5078120;28;20055;-76
2022/09/29 10:49:20;;;;;;;2.58;1.20;;;;;;;13.12;79.85;100281.31;5070703;28;20054;-76
2022/09/29 10:52:16;;;;;;;2.95;1.30;;;;;;;13.36;78.90;100284.13;5069515;28;20071;-76
2022/09/29 10:54:54;;;;;;;1.80;1.23;;;;;;;13.45;79.31;100271.97;5065596;28;20036;-76
2022/09/29 10:57:26;;;;;;;1.85;1.02;;;;;;;13.37;79.14;100288.47;5070639;28;20116;-76
2022/09/29 10:59:54;;;;;;;2.10;1.10;;;;;;;13.52;79.34;100280.78;5084992;28;20498;-75
2022/09/29 11:02:29;;;;;;;2.95;1.15;;;;;;;13.71;78.74;100269.88;5068121;28;20033;-76
2022/09/29 11:04:59;;;;;;;1.48;1.00;;;;;;;13.66;78.43;100227.31;5073414;28;20025;-76
2022/09/29 11:07:25;;;;;;;2.03;1.35;;;;;;;14.31;77.72;100272.38;5060969;28;20033;-77
2022/09/29 11:09:53;;;;;;;3.28;1.83;;;;;;;14.27;76.50;100271.19;5041004;28;20032;-76
2022/09/29 11:12:38;;;;;;;2.08;1.10;;;;;;;13.82;74.39;100248.25;5039618;28;20024;-76
2022/09/29 11:15:24;;;;;;;;;;;;;;;13.54;74.69;100284.09;5064337;28;20021;-78
2022/09/29 11:17:50;;;;;;;;;;;;;;;13.55;74.76;100288.44;5065375;28;20374;-77
2022/09/29 11:20:17;;;;;;;2.33;0.88;;;;;;;12.65;76.72;100162.31;5056027;28;19921;-76
2022/09/29 11:23:30;;;;;;;2.17;1.10;;;;;;;13.30;76.07;100276.94;5049729;28;20378;-76
2022/09/29 11:26:06;;;;;;;1.70;1.20;;;;;;;13.47;76.16;100283.34;5065845;28;20167;-76
2022/09/29 11:28:55;;;;;;;1.90;1.20;;;;;;;13.78;75.67;100273.31;5038396;28;20029;-75
2022/09/29 11:31:26;;;;;;;1.10;0.90;;;;;;;13.95;73.79;100285.09;5061616;28;20115;-76
2022/09/29 11:34:32;;;;;;;1.00;0.90;;;;;;;13.83;71.01;100254.50;5067949;28;20048;-75
2022/09/29 11:37:24;;;;;;;1.75;1.10;;;;;;;13.81;71.56;100283.66;5066869;28;20036;-76
2022/09/29 11:39:55;;;;;;;1.50;1.10;;;;;;;13.72;73.01;100294.00;5062417;28;20048;-77
2022/09/29 11:42:46;;;;;;;1.60;1.10;;;;;;;13.66;71.40;100302.19;5072482;28;20036;-76
2022/09/29 11:45:17;;;;;;;1.38;1.02;;;;;;;13.60;72.22;100296.66;5064466;28;20049;-77
2022/09/29 11:47:45;;;;;;;2.40;1.25;;;;;;;13.73;75.57;100303.75;5062683;28;20032;-75
2022/09/29 11:50:32;;;;;;;1.35;1.10;;;;;;;13.69;76.69;100309.84;5060846;28;20479;-76
2022/09/29 11:53:10;;;;;;;2.60;1.23;;;;;;;13.33;76.64;100308.91;5072023;28;20028;-76